QFA596 YWLM-YSSY
Flight info
| Callsign | QFA596 |
|---|---|
| Flight time | N/A |
| Altitude | 16000 |
| Route | WLM DCT MONDO DCT AKTEG/N0342F150 DCT BOREE H652 TESAT |
| Aircraft | B738/M-SDE2E3FGHIRWXY/LB1 |
Departure
| Time | 2026-04-25 04:41 |
|---|---|
| Airport | Newcastle Airport (YWLM) |
Arrival
| Time | N/A |
|---|---|
| Airport | Sydney Kingsford Smith International Airport (YSSY) |
| Time | Latitude | Longitude | Altitude | Speed | Heading |
|---|---|---|---|---|---|
| 2026-04-25 04:10 | -32.80345 | 151.83987 | 35 ft | 0 kts | 251° |
| 2026-04-25 04:30 | -32.80342 | 151.83997 | 35 ft | 2 kts | 251° |
| 2026-04-25 04:30 | -32.80338 | 151.84013 | 35 ft | 2 kts | 251° |
| 2026-04-25 04:30 | -32.80333 | 151.84030 | 35 ft | 2 kts | 251° |
| 2026-04-25 04:30 | -32.80329 | 151.84041 | 35 ft | 0 kts | 266° |
| 2026-04-25 04:31 | -32.80330 | 151.84047 | 35 ft | 1 kts | 314° |
| 2026-04-25 04:31 | -32.80333 | 151.84052 | 35 ft | 0 kts | 310° |
| 2026-04-25 04:35 | -32.80332 | 151.84050 | 35 ft | 1 kts | 310° |
| 2026-04-25 04:35 | -32.80326 | 151.84041 | 35 ft | 3 kts | 310° |
| 2026-04-25 04:35 | -32.80277 | 151.83975 | 35 ft | 16 kts | 312° |
| 2026-04-25 04:35 | -32.80193 | 151.83862 | 35 ft | 20 kts | 313° |
| 2026-04-25 04:36 | -32.80063 | 151.83830 | 35 ft | 23 kts | 7° |
| 2026-04-25 04:36 | -32.79890 | 151.83864 | 35 ft | 25 kts | 20° |
| 2026-04-25 04:36 | -32.79760 | 151.83980 | 35 ft | 19 kts | 358° |
| 2026-04-25 04:36 | -32.79662 | 151.83874 | 35 ft | 18 kts | 313° |
| 2026-04-25 04:37 | -32.79562 | 151.83737 | 35 ft | 35 kts | 309° |
| 2026-04-25 04:37 | -32.79348 | 151.83435 | 35 ft | 54 kts | 309° |
| 2026-04-25 04:37 | -32.79113 | 151.83107 | 35 ft | 51 kts | 309° |
| 2026-04-25 04:37 | -32.78896 | 151.82802 | 35 ft | 46 kts | 310° |
| 2026-04-25 04:38 | -32.78706 | 151.82538 | 35 ft | 32 kts | 309° |
| 2026-04-25 04:38 | -32.78621 | 151.82414 | 35 ft | 11 kts | 296° |
| 2026-04-25 04:38 | -32.78624 | 151.82369 | 35 ft | 3 kts | 237° |
| 2026-04-25 04:38 | -32.78628 | 151.82362 | 35 ft | 0 kts | 222° |
| 2026-04-25 04:39 | -32.78629 | 151.82361 | 35 ft | 0 kts | 223° |
| 2026-04-25 04:39 | -32.78639 | 151.82350 | 35 ft | 0 kts | 221° |
| 2026-04-25 04:40 | -32.78687 | 151.82303 | 35 ft | 13 kts | 211° |
| 2026-04-25 04:40 | -32.78742 | 151.82306 | 35 ft | 3 kts | 135° |
| 2026-04-25 04:41 | -32.78759 | 151.82327 | 35 ft | 3 kts | 134° |
| 2026-04-25 04:41 | -32.78847 | 151.82443 | 35 ft | 48 kts | 130° |
| 2026-04-25 04:41 | -32.79298 | 151.83081 | 35 ft | 149 kts | 128° |
| 2026-04-25 04:41 | -32.80086 | 151.84111 | 834 ft | 179 kts | 135° |
| 2026-04-25 04:42 | -32.81027 | 151.85155 | 1624 ft | 214 kts | 130° |
| 2026-04-25 04:42 | -32.82068 | 151.86673 | 1221 ft | 250 kts | 126° |
| 2026-04-25 04:42 | -32.83364 | 151.88345 | 993 ft | 278 kts | 134° |
| 2026-04-25 04:42 | -32.84793 | 151.89800 | 955 ft | 256 kts | 138° |
| 2026-04-25 04:43 | -32.86064 | 151.91020 | 1266 ft | 250 kts | 138° |